createdAt,value
2022-08-11T00:03:11.775Z,18.47
2022-08-11T00:07:44.977Z,18.43
2022-08-11T00:12:19.176Z,18.37
2022-08-11T00:17:05.133Z,18.35
2022-08-11T00:26:40.862Z,18.31
2022-08-11T00:31:19.398Z,18.32
2022-08-11T00:36:05.413Z,18.31
2022-08-11T00:50:23.883Z,18.32
2022-08-11T00:59:35.356Z,18.33
2022-08-11T01:13:54.233Z,18.31
2022-08-11T01:18:28.513Z,18.30
2022-08-11T01:23:17.703Z,18.28
2022-08-11T01:28:04.137Z,18.23
2022-08-11T01:32:50.953Z,18.15
2022-08-11T01:37:21.733Z,18.07
2022-08-11T01:47:09.399Z,17.96
2022-08-11T01:51:45.297Z,17.92
2022-08-11T01:56:26.685Z,17.90
2022-08-11T02:01:12.938Z,17.89
2022-08-11T02:05:55.154Z,17.90
2022-08-11T02:10:29.649Z,17.90
2022-08-11T02:15:07.723Z,17.88
2022-08-11T02:19:32.345Z,17.84
2022-08-11T02:24:17.315Z,17.81
2022-08-11T02:28:52.984Z,17.77
2022-08-11T02:33:45.222Z,17.71
2022-08-11T02:38:18.489Z,17.70
2022-08-11T02:42:53.037Z,17.67
2022-08-11T02:47:25.957Z,17.64
2022-08-11T02:52:16.373Z,17.62
2022-08-11T02:56:47.697Z,17.62
2022-08-11T03:01:23.053Z,17.60
2022-08-11T03:05:58.844Z,17.56
2022-08-11T03:10:39.663Z,17.54
2022-08-11T03:15:12.565Z,17.53
2022-08-11T03:19:44.200Z,17.51
2022-08-11T03:24:45.821Z,17.51
2022-08-11T03:29:32.515Z,17.53
2022-08-11T03:38:59.110Z,17.59
2022-08-11T03:43:50.191Z,17.63
2022-08-11T03:48:27.435Z,17.65
2022-08-11T03:53:25.651Z,17.68
2022-08-11T03:58:21.324Z,17.72
2022-08-11T04:08:03.002Z,17.78
2022-08-11T04:12:49.642Z,17.80
2022-08-11T04:17:30.595Z,17.86
2022-08-11T04:22:07.937Z,17.91
2022-08-11T04:26:54.115Z,17.98
2022-08-11T04:31:44.215Z,18.02
2022-08-11T04:36:46.896Z,18.08
2022-08-11T04:41:30.284Z,18.14
2022-08-11T04:46:28.106Z,18.20
2022-08-11T04:51:08.849Z,18.27
2022-08-11T04:55:54.303Z,18.37
2022-08-11T05:00:31.376Z,18.55
2022-08-11T05:05:01.637Z,18.84
2022-08-11T05:09:34.816Z,19.26
2022-08-11T05:13:46.341Z,19.76
2022-08-11T05:18:01.173Z,20.22
2022-08-11T05:22:31.072Z,20.78
2022-08-11T05:26:47.177Z,21.27
2022-08-11T05:30:59.668Z,21.79
2022-08-11T05:36:00.288Z,22.29
2022-08-11T05:40:03.426Z,22.82
2022-08-11T05:44:20.867Z,23.23
2022-08-11T05:53:46.323Z,23.77
2022-08-11T05:58:25.269Z,24.05
2022-08-11T06:03:04.411Z,24.32
2022-08-11T06:07:49.052Z,24.43
2022-08-11T06:12:42.159Z,24.74
2022-08-11T06:17:38.455Z,25.10
2022-08-11T06:22:12.274Z,25.52
2022-08-11T06:27:09.002Z,25.94
2022-08-11T06:36:52.265Z,26.85
2022-08-11T06:41:51.482Z,27.16
2022-08-11T06:46:28.353Z,27.37
2022-08-11T06:50:59.932Z,27.23
2022-08-11T07:00:53.480Z,26.72
2022-08-11T07:05:40.199Z,26.88
2022-08-11T07:10:11.846Z,27.05
2022-08-11T07:19:23.371Z,27.40
2022-08-11T07:23:55.225Z,27.55
2022-08-11T07:28:29.706Z,27.62
2022-08-11T07:33:09.593Z,27.73
2022-08-11T07:37:43.001Z,27.92
2022-08-11T07:42:29.852Z,28.08
2022-08-11T07:47:01.269Z,28.18
2022-08-11T07:51:46.106Z,28.27
2022-08-11T07:56:07.306Z,28.32
2022-08-11T08:00:39.270Z,28.42
2022-08-11T08:05:10.801Z,28.46
2022-08-11T08:09:36.960Z,28.60
2022-08-11T08:14:22.020Z,28.69
2022-08-11T08:18:55.330Z,28.81
2022-08-11T08:23:28.675Z,28.95
2022-08-11T08:27:25.902Z,29.11
2022-08-11T08:31:51.781Z,29.24
2022-08-11T08:35:37.612Z,29.39
2022-08-11T08:40:15.137Z,29.36
2022-08-11T08:44:56.046Z,29.37
2022-08-11T08:49:28.525Z,29.56
2022-08-11T08:54:02.073Z,29.76
2022-08-11T08:58:35.787Z,29.92
2022-08-11T09:06:48.802Z,29.85
2022-08-11T09:11:18.635Z,29.92
2022-08-11T09:15:44.819Z,30.03
2022-08-11T09:19:49.516Z,30.16
2022-08-11T09:24:25.833Z,30.28
2022-08-11T09:28:44.265Z,30.44
2022-08-11T09:33:24.549Z,30.59
2022-08-11T09:37:56.609Z,30.69
2022-08-11T09:42:23.191Z,30.78
2022-08-11T09:47:10.197Z,30.82
2022-08-11T09:51:46.634Z,30.75
2022-08-11T09:56:27.573Z,30.58
2022-08-11T10:00:48.409Z,30.35
2022-08-11T10:04:15.598Z,30.13
2022-08-11T10:08:39.327Z,29.83
2022-08-11T10:14:31.006Z,29.66
2022-08-11T10:18:23.200Z,29.43
2022-08-11T10:22:54.620Z,29.18
2022-08-11T10:28:28.265Z,29.09
2022-08-11T10:32:57.585Z,28.81
2022-08-11T10:38:06.295Z,28.83
2022-08-11T10:42:57.308Z,28.70
2022-08-11T10:47:11.278Z,28.54
2022-08-11T10:51:50.830Z,28.46
2022-08-11T11:01:01.536Z,28.31
2022-08-11T11:05:27.461Z,28.23
2022-08-11T11:10:19.165Z,28.24
2022-08-11T11:14:33.360Z,28.25
2022-08-11T11:19:12.492Z,28.22
2022-08-11T11:23:37.738Z,28.19
2022-08-11T11:28:26.882Z,28.10
2022-08-11T11:32:53.146Z,28.02
2022-08-11T11:37:33.756Z,28.01
2022-08-11T11:42:20.173Z,27.80
2022-08-11T11:46:53.552Z,27.67
2022-08-11T11:51:31.745Z,27.77
2022-08-11T11:56:15.856Z,27.86
2022-08-11T12:00:41.551Z,27.72
2022-08-11T12:05:10.786Z,27.69
2022-08-11T12:09:44.114Z,27.65
2022-08-11T12:14:25.894Z,27.64
2022-08-11T12:18:51.785Z,27.72
2022-08-11T12:23:29.034Z,27.65
2022-08-11T12:28:16.553Z,27.51
2022-08-11T12:32:48.346Z,27.25
2022-08-11T12:37:34.658Z,27.17
2022-08-11T12:42:06.765Z,27.14
2022-08-11T12:46:38.827Z,26.98
2022-08-11T12:51:12.207Z,26.77
2022-08-11T12:55:42.982Z,26.56
2022-08-11T13:00:35.745Z,26.56
2022-08-11T13:05:12.150Z,26.51
2022-08-11T13:09:44.690Z,26.40
2022-08-11T13:14:19.537Z,26.32
2022-08-11T13:18:53.299Z,26.29
2022-08-11T13:23:27.062Z,26.27
2022-08-11T13:27:40.195Z,26.26
2022-08-11T13:32:26.766Z,26.15
2022-08-11T13:36:54.539Z,26.11
2022-08-11T13:41:30.085Z,26.04
2022-08-11T13:45:57.247Z,25.94
2022-08-11T13:50:29.846Z,25.97
2022-08-11T13:55:01.044Z,25.97
2022-08-11T13:59:30.342Z,25.88
2022-08-11T14:04:28.778Z,25.77
2022-08-11T14:09:07.368Z,25.71
2022-08-11T14:13:59.192Z,25.50
2022-08-11T14:18:36.675Z,25.48
2022-08-11T14:23:10.200Z,25.49
2022-08-11T14:28:31.557Z,25.52
2022-08-11T14:32:55.291Z,25.63
2022-08-11T14:37:34.033Z,25.73
2022-08-11T14:42:22.317Z,25.88
2022-08-11T14:46:47.441Z,25.90
2022-08-11T14:50:35.886Z,25.77
2022-08-11T14:54:27.167Z,25.62
2022-08-11T14:57:54.978Z,25.60
2022-08-11T15:01:30.868Z,25.66
2022-08-11T15:05:35.136Z,25.72
2022-08-11T15:09:08.344Z,25.84
2022-08-11T15:13:33.861Z,25.77
2022-08-11T15:18:00.348Z,25.71
2022-08-11T15:22:38.226Z,25.67
2022-08-11T15:27:26.007Z,25.63
2022-08-11T15:31:58.146Z,25.66
2022-08-11T15:47:36.821Z,24.87
2022-08-11T15:52:31.342Z,24.72
2022-08-11T15:57:23.075Z,24.44
2022-08-11T16:01:55.950Z,24.27
2022-08-11T16:06:29.473Z,24.16
2022-08-11T16:11:30.849Z,24.10
2022-08-11T16:15:52.697Z,24.04
2022-08-11T16:27:01.381Z,23.91
2022-08-11T16:30:30.337Z,23.77
2022-08-11T16:40:02.534Z,23.65
2022-08-11T16:44:37.534Z,23.58
2022-08-11T16:49:23.687Z,23.47
2022-08-11T16:54:10.064Z,23.41
2022-08-11T16:58:55.133Z,23.33
2022-08-11T17:03:39.974Z,23.25
2022-08-11T17:08:24.745Z,23.17
2022-08-11T17:12:50.466Z,23.08
2022-08-11T17:17:27.705Z,23.02
2022-08-11T17:22:03.203Z,22.92
2022-08-11T17:26:35.920Z,22.82
2022-08-11T17:35:57.392Z,22.67
2022-08-11T17:40:30.965Z,22.58
2022-08-11T17:50:09.152Z,22.43
2022-08-11T17:55:01.915Z,22.37
2022-08-11T17:59:49.193Z,22.29
2022-08-11T18:04:39.378Z,22.20
2022-08-11T18:09:11.497Z,22.13
2022-08-11T18:13:40.637Z,22.07
2022-08-11T18:17:44.816Z,22.01
2022-08-11T18:22:14.864Z,21.97
2022-08-11T18:26:27.904Z,21.92
2022-08-11T18:31:13.229Z,21.88
2022-08-11T18:35:39.648Z,21.84
2022-08-11T18:39:54.698Z,21.79
2022-08-11T18:44:21.496Z,21.73
2022-08-11T18:53:15.195Z,21.63
2022-08-11T18:57:15.752Z,21.60
2022-08-11T19:01:46.879Z,21.56
2022-08-11T19:06:38.574Z,21.51
2022-08-11T19:10:42.325Z,21.49
2022-08-11T19:14:53.635Z,21.45
2022-08-11T19:19:12.274Z,21.40
2022-08-11T19:23:44.298Z,21.34
2022-08-11T19:27:49.217Z,21.28
2022-08-11T19:32:34.128Z,21.24
2022-08-11T19:36:58.808Z,21.21
2022-08-11T19:41:09.318Z,21.13
2022-08-11T19:45:14.395Z,21.08
2022-08-11T19:49:32.964Z,21.01
2022-08-11T19:53:43.436Z,20.97
2022-08-11T19:57:53.710Z,20.93
2022-08-11T20:02:14.328Z,20.87
2022-08-11T20:06:39.292Z,20.83
2022-08-11T20:10:49.560Z,20.81
2022-08-11T20:14:59.710Z,20.80
2022-08-11T20:19:10.740Z,20.78
2022-08-11T20:23:35.241Z,20.77
2022-08-11T20:27:46.103Z,20.75
2022-08-11T20:32:10.686Z,20.73
2022-08-11T20:36:21.556Z,20.72
2022-08-11T20:40:45.961Z,20.72
2022-08-11T20:44:57.482Z,20.71
2022-08-11T20:49:21.630Z,20.69
2022-08-11T20:58:15.215Z,20.66
2022-08-11T21:02:24.656Z,20.65
2022-08-11T21:06:49.812Z,20.66
2022-08-11T21:11:00.825Z,20.66
2022-08-11T21:15:11.900Z,20.64
2022-08-11T21:20:01.259Z,20.60
2022-08-11T21:24:05.222Z,20.52
2022-08-11T21:28:16.413Z,20.46
2022-08-11T21:32:26.900Z,20.42
2022-08-11T21:36:37.762Z,20.38
2022-08-11T21:41:01.998Z,20.35
2022-08-11T21:45:12.722Z,20.27
2022-08-11T21:49:26.095Z,20.17
2022-08-11T21:53:36.437Z,20.07
2022-08-11T21:58:00.640Z,20.00
2022-08-11T22:02:24.954Z,19.93
2022-08-11T22:06:35.825Z,19.88
2022-08-11T22:11:06.839Z,19.85
2022-08-11T22:15:17.265Z,19.83
2022-08-11T22:20:01.735Z,19.79
2022-08-11T22:24:30.068Z,19.78
2022-08-11T22:28:54.903Z,19.75
2022-08-11T22:33:23.419Z,19.71
2022-08-11T22:37:38.140Z,19.69
2022-08-11T22:41:48.367Z,19.67
2022-08-11T22:46:14.082Z,19.64
2022-08-11T22:50:27.123Z,19.60
2022-08-11T22:54:37.811Z,19.58
2022-08-11T22:58:57.346Z,19.59
2022-08-11T23:03:02.241Z,19.57
2022-08-11T23:07:50.247Z,19.57
2022-08-11T23:12:31.160Z,19.55
2022-08-11T23:17:02.941Z,19.52
2022-08-11T23:21:13.553Z,19.51
2022-08-11T23:25:24.514Z,19.50
2022-08-11T23:29:48.661Z,19.51
2022-08-11T23:33:58.993Z,19.49
2022-08-11T23:38:10.009Z,19.47
2022-08-11T23:42:41.085Z,19.46
2022-08-11T23:47:10.285Z,19.45
2022-08-11T23:51:55.204Z,19.45
2022-08-11T23:56:31.861Z,19.43
